createdAt,value
2018-02-03T00:01:01.611Z,5.20
2018-02-03T00:03:29.137Z,5.20
2018-02-03T00:05:56.651Z,5.10
2018-02-03T00:08:24.953Z,5.00
2018-02-03T00:10:52.467Z,5.00
2018-02-03T00:13:20.764Z,5.00
2018-02-03T00:15:48.629Z,5.00
2018-02-03T00:18:16.137Z,5.00
2018-02-03T00:20:43.711Z,5.00
2018-02-03T00:23:11.248Z,5.10
2018-02-03T00:25:38.773Z,5.10
2018-02-03T00:28:06.268Z,5.00
2018-02-03T00:30:33.800Z,5.00
2018-02-03T00:33:01.349Z,5.00
2018-02-03T00:35:28.856Z,5.00
2018-02-03T00:37:56.381Z,5.00
2018-02-03T00:40:23.905Z,5.00
2018-02-03T00:42:51.396Z,5.00
2018-02-03T00:45:18.938Z,5.00
2018-02-03T00:47:46.428Z,5.00
2018-02-03T00:50:13.927Z,5.00
2018-02-03T00:52:42.246Z,4.90
2018-02-03T00:55:09.749Z,4.90
2018-02-03T00:57:38.072Z,5.00
2018-02-03T01:00:05.621Z,4.90
2018-02-03T01:02:33.143Z,4.90
2018-02-03T01:05:00.672Z,5.00
2018-02-03T01:07:28.208Z,5.00
2018-02-03T01:09:55.711Z,5.00
2018-02-03T01:12:23.972Z,4.90
2018-02-03T01:14:51.540Z,4.90
2018-02-03T01:17:19.063Z,4.80
2018-02-03T01:19:46.598Z,4.80
2018-02-03T01:22:14.115Z,4.90
2018-02-03T01:24:41.642Z,5.00
2018-02-03T01:27:09.180Z,5.00
2018-02-03T01:29:36.683Z,5.10
2018-02-03T01:32:04.975Z,5.10
2018-02-03T01:34:33.244Z,5.00
2018-02-03T01:37:01.555Z,5.00
2018-02-03T01:39:29.048Z,5.00
2018-02-03T01:41:56.556Z,4.90
2018-02-03T01:44:24.077Z,4.90
2018-02-03T01:46:52.355Z,5.00
2018-02-03T01:49:19.915Z,4.90
2018-02-03T01:51:48.191Z,5.00
2018-02-03T01:54:16.468Z,5.10
2018-02-03T01:56:43.984Z,5.10
2018-02-03T01:59:11.480Z,5.10
2018-02-03T02:01:39.765Z,5.10
2018-02-03T02:04:08.040Z,5.00
2018-02-03T02:06:36.344Z,5.00
2018-02-03T02:09:03.869Z,5.00
2018-02-03T02:11:31.432Z,5.00
2018-02-03T02:13:59.703Z,4.90
2018-02-03T02:16:27.205Z,4.80
2018-02-03T02:18:54.722Z,4.80
2018-02-03T02:21:22.991Z,4.80
2018-02-03T02:23:50.522Z,4.70
2018-02-03T02:26:18.015Z,4.70
2018-02-03T02:28:46.321Z,4.60
2018-02-03T02:31:13.835Z,4.60
2018-02-03T02:33:41.368Z,4.50
2018-02-03T02:36:08.877Z,4.50
2018-02-03T02:38:36.371Z,4.40
2018-02-03T02:41:03.919Z,4.40
2018-02-03T02:43:31.412Z,4.50
2018-02-03T02:45:58.950Z,4.40
2018-02-03T02:48:26.463Z,4.30
2018-02-03T02:50:53.996Z,4.30
2018-02-03T02:53:21.513Z,4.30
2018-02-03T02:55:49.020Z,4.40
2018-02-03T02:58:16.543Z,4.40
2018-02-03T03:00:44.055Z,4.40
2018-02-03T03:03:11.595Z,4.40
2018-02-03T03:05:39.910Z,4.50
2018-02-03T03:08:07.418Z,4.50
2018-02-03T03:10:34.946Z,4.60
2018-02-03T03:13:02.451Z,4.60
2018-02-03T03:15:30.741Z,4.70
2018-02-03T03:17:58.238Z,4.70
2018-02-03T03:20:25.731Z,4.70
2018-02-03T03:22:53.271Z,4.70
2018-02-03T03:25:20.768Z,4.70
2018-02-03T03:27:48.300Z,4.70
2018-02-03T03:30:15.811Z,4.70
2018-02-03T03:32:43.332Z,4.60
2018-02-03T03:35:10.821Z,4.50
2018-02-03T03:37:38.378Z,4.50
2018-02-03T03:40:05.915Z,4.50
2018-02-03T03:42:33.442Z,4.50
2018-02-03T03:45:00.989Z,4.60
2018-02-03T03:47:28.483Z,4.60
2018-02-03T03:49:56.019Z,4.60
2018-02-03T03:52:23.520Z,4.60
2018-02-03T03:54:51.052Z,4.60
2018-02-03T03:57:19.315Z,4.70
2018-02-03T03:59:46.831Z,4.70
2018-02-03T04:02:14.354Z,4.80
2018-02-03T04:04:41.850Z,4.80
2018-02-03T04:07:09.387Z,4.80
2018-02-03T04:09:36.873Z,4.80
2018-02-03T04:12:04.355Z,4.90
2018-02-03T04:14:31.882Z,4.90
2018-02-03T04:16:59.371Z,4.90
2018-02-03T04:19:27.657Z,4.90
2018-02-03T04:21:55.936Z,4.90
2018-02-03T04:24:24.223Z,4.90
2018-02-03T04:26:51.720Z,4.90
2018-02-03T04:29:19.208Z,5.00
2018-02-03T04:31:47.522Z,5.00
2018-02-03T04:34:15.026Z,4.90
2018-02-03T04:36:42.583Z,5.00
2018-02-03T04:39:10.088Z,5.00
2018-02-03T04:41:37.612Z,4.90
2018-02-03T04:44:05.859Z,4.90
2018-02-03T04:46:33.363Z,4.90
2018-02-03T04:49:00.884Z,4.90
2018-02-03T04:51:28.395Z,4.90
2018-02-03T04:53:55.920Z,4.90
2018-02-03T04:56:24.197Z,5.00
2018-02-03T04:58:52.495Z,5.00
2018-02-03T05:01:20.755Z,5.00
2018-02-03T05:03:49.016Z,5.00
2018-02-03T05:06:16.528Z,5.00
2018-02-03T05:08:44.031Z,5.00
2018-02-03T05:11:11.550Z,5.00
2018-02-03T05:13:39.034Z,5.10
2018-02-03T05:16:06.573Z,5.10
2018-02-03T05:18:34.103Z,5.10
2018-02-03T05:21:01.628Z,5.10
2018-02-03T05:23:29.916Z,5.10
2018-02-03T05:25:58.167Z,5.20
2018-02-03T05:28:25.698Z,5.10
2018-02-03T05:30:53.226Z,5.20
2018-02-03T05:33:20.732Z,5.20
2018-02-03T05:35:49.024Z,5.10
2018-02-03T05:38:17.300Z,5.10
2018-02-03T05:40:45.576Z,5.20
2018-02-03T05:43:13.830Z,5.20
2018-02-03T05:45:41.442Z,5.20
2018-02-03T05:48:08.926Z,5.10
2018-02-03T05:50:36.422Z,5.10
2018-02-03T05:53:04.735Z,5.10
2018-02-03T05:55:32.296Z,5.00
2018-02-03T05:57:59.831Z,5.00
2018-02-03T06:00:28.119Z,5.00
2018-02-03T06:02:55.634Z,5.00
2018-02-03T06:05:23.179Z,5.00
2018-02-03T06:07:50.668Z,5.00
2018-02-03T06:10:18.965Z,5.00
2018-02-03T06:12:46.468Z,5.00
2018-02-03T06:15:14.015Z,4.90
2018-02-03T06:17:41.503Z,4.90
2018-02-03T06:20:08.990Z,4.90
2018-02-03T06:22:36.503Z,4.80
2018-02-03T06:25:03.987Z,4.80
2018-02-03T06:27:32.272Z,4.80
2018-02-03T06:29:59.789Z,4.80
2018-02-03T06:32:27.318Z,4.80
2018-02-03T06:34:54.807Z,4.80
2018-02-03T06:37:22.363Z,4.80
2018-02-03T06:39:49.863Z,4.70
2018-02-03T06:42:18.121Z,4.70
2018-02-03T06:44:46.415Z,4.60
2018-02-03T06:47:14.695Z,4.60
2018-02-03T06:49:42.221Z,4.60
2018-02-03T06:52:09.722Z,4.60
2018-02-03T06:54:37.241Z,4.50
2018-02-03T06:57:04.743Z,4.50
2018-02-03T06:59:32.322Z,4.50
2018-02-03T07:01:59.971Z,4.40
2018-02-03T07:04:27.772Z,4.40
2018-02-03T07:06:55.291Z,4.40
2018-02-03T07:09:22.785Z,4.40
2018-02-03T07:11:50.291Z,4.40
2018-02-03T07:14:17.829Z,4.40
2018-02-03T07:16:46.100Z,4.40
2018-02-03T07:19:14.401Z,4.40
2018-02-03T07:21:41.900Z,4.40
2018-02-03T07:24:09.470Z,4.40
2018-02-03T07:26:36.984Z,4.40
2018-02-03T07:29:04.519Z,4.40
2018-02-03T07:31:32.029Z,4.50
2018-02-03T07:33:59.531Z,4.50
2018-02-03T07:36:27.816Z,4.50
2018-02-03T07:38:55.323Z,4.50
2018-02-03T07:41:22.857Z,4.50
2018-02-03T07:43:50.366Z,4.50
2018-02-03T07:46:18.684Z,4.60
2018-02-03T07:48:46.182Z,4.60
2018-02-03T07:51:13.708Z,4.60
2018-02-03T07:53:41.233Z,4.60
2018-02-03T07:56:08.741Z,4.60
2018-02-03T07:58:36.265Z,4.70
2018-02-03T08:01:03.780Z,4.70
2018-02-03T08:03:32.109Z,4.80
2018-02-03T08:05:59.619Z,4.80
2018-02-03T08:08:27.943Z,4.80
2018-02-03T08:10:55.457Z,4.80
2018-02-03T08:13:23.733Z,4.80
2018-02-03T08:15:52.040Z,4.90
2018-02-03T08:18:19.542Z,4.90
2018-02-03T08:20:47.078Z,4.90
2018-02-03T08:23:14.579Z,5.00
2018-02-03T08:25:42.863Z,5.00
2018-02-03T08:28:11.140Z,5.00
2018-02-03T08:30:39.474Z,5.00
2018-02-03T08:33:07.003Z,5.10
2018-02-03T08:35:34.506Z,5.10
2018-02-03T08:38:02.029Z,5.10
2018-02-03T08:40:29.538Z,5.10
2018-02-03T08:42:57.866Z,5.20
2018-02-03T08:45:25.426Z,5.20
2018-02-03T08:47:52.895Z,5.20
2018-02-03T08:50:20.428Z,5.20
2018-02-03T08:52:47.934Z,5.30
2018-02-03T08:55:15.459Z,5.30
2018-02-03T08:57:42.964Z,5.30
2018-02-03T09:00:10.530Z,5.30
2018-02-03T09:02:38.041Z,5.30
2018-02-03T09:05:05.564Z,5.30
2018-02-03T09:07:33.088Z,5.40
2018-02-03T09:10:01.367Z,5.40
2018-02-03T09:12:28.948Z,5.40
2018-02-03T09:14:56.455Z,5.50
2018-02-03T09:17:24.012Z,5.50
2018-02-03T09:19:51.540Z,5.50
2018-02-03T09:22:19.066Z,5.60
2018-02-03T09:24:47.376Z,5.70
2018-02-03T09:27:14.902Z,5.70
2018-02-03T09:29:42.447Z,5.70
2018-02-03T09:32:10.715Z,5.70
2018-02-03T09:34:39.007Z,5.80
2018-02-03T09:37:07.288Z,5.80
2018-02-03T09:39:34.871Z,5.80
2018-02-03T09:42:02.392Z,5.80
2018-02-03T09:44:30.669Z,5.80
2018-02-03T09:46:58.953Z,5.80
2018-02-03T09:49:26.473Z,5.80
2018-02-03T09:51:53.993Z,5.80
2018-02-03T09:54:21.518Z,5.80
2018-02-03T09:56:49.805Z,5.90
2018-02-03T09:59:17.316Z,5.90
2018-02-03T10:01:44.959Z,5.90
2018-02-03T10:04:12.506Z,6.00
2018-02-03T10:06:40.073Z,6.00
2018-02-03T10:09:07.582Z,6.00
2018-02-03T10:11:35.933Z,6.10
2018-02-03T10:14:03.450Z,6.00
2018-02-03T10:16:30.983Z,6.00
2018-02-03T10:18:59.265Z,6.10
2018-02-03T10:21:26.755Z,6.10
2018-02-03T10:23:54.349Z,6.10
2018-02-03T10:26:21.867Z,6.10
2018-02-03T10:28:49.397Z,6.20
2018-02-03T10:31:16.946Z,6.20
2018-02-03T10:33:44.440Z,6.10
2018-02-03T10:36:12.023Z,6.20
2018-02-03T10:38:39.512Z,6.20
2018-02-03T10:41:07.831Z,6.80
2018-02-03T10:43:35.329Z,6.80
2018-02-03T10:46:02.848Z,7.20
2018-02-03T10:48:30.368Z,7.50
2018-02-03T10:50:58.673Z,8.20
2018-02-03T10:53:26.223Z,8.20
2018-02-03T10:55:53.991Z,8.30
2018-02-03T10:58:21.640Z,8.20
2018-02-03T11:00:49.182Z,8.10
2018-02-03T11:03:17.873Z,7.70
2018-02-03T11:05:46.319Z,7.70
2018-02-03T11:08:15.530Z,7.50
2018-02-03T11:10:43.934Z,7.20
2018-02-03T11:13:12.506Z,7.20
2018-02-03T11:15:40.335Z,7.20
2018-02-03T11:18:08.779Z,7.10
2018-02-03T11:20:36.567Z,7.10
2018-02-03T11:23:04.907Z,7.10
2018-02-03T11:25:32.446Z,7.00
2018-02-03T11:28:00.725Z,7.10
2018-02-03T11:30:28.436Z,7.00
2018-02-03T11:32:55.938Z,7.10
2018-02-03T11:35:24.345Z,7.00
2018-02-03T11:37:51.857Z,7.00
2018-02-03T11:40:19.426Z,7.00
2018-02-03T11:42:47.755Z,7.00
2018-02-03T11:45:15.291Z,7.00
2018-02-03T11:47:42.853Z,6.90
2018-02-03T11:50:10.408Z,6.90
2018-02-03T11:52:37.945Z,6.90
2018-02-03T11:55:06.275Z,6.80
2018-02-03T11:57:33.800Z,6.80
2018-02-03T12:00:01.312Z,6.80
2018-02-03T12:02:28.828Z,6.80
2018-02-03T12:04:56.348Z,6.80
2018-02-03T12:07:24.664Z,6.70
2018-02-03T12:09:52.179Z,6.70
2018-02-03T12:12:20.482Z,6.70
2018-02-03T12:14:47.984Z,6.70
2018-02-03T12:17:15.516Z,6.70
2018-02-03T12:19:43.055Z,6.70
2018-02-03T12:22:10.617Z,6.70
2018-02-03T12:24:38.162Z,6.70
2018-02-03T12:27:05.674Z,6.70
2018-02-03T12:29:33.968Z,6.60
2018-02-03T12:32:02.315Z,6.60
2018-02-03T12:34:29.856Z,6.60
2018-02-03T12:36:57.782Z,6.70
2018-02-03T12:39:26.089Z,6.70
2018-02-03T12:41:53.651Z,6.70
2018-02-03T12:44:21.197Z,6.70
2018-02-03T12:46:48.786Z,6.70
2018-02-03T12:49:16.412Z,6.70
2018-02-03T12:51:43.900Z,6.70
2018-02-03T12:54:11.441Z,6.70
2018-02-03T12:56:39.000Z,6.70
2018-02-03T12:59:06.535Z,6.70
2018-02-03T13:01:34.084Z,6.70
2018-02-03T13:04:02.404Z,6.60
2018-02-03T13:06:29.896Z,6.60
2018-02-03T13:08:57.411Z,6.60
2018-02-03T13:11:25.088Z,6.60
2018-02-03T13:13:52.633Z,6.60
2018-02-03T13:16:20.200Z,6.60
2018-02-03T13:18:47.714Z,6.60
2018-02-03T13:21:16.024Z,6.60
2018-02-03T13:23:43.543Z,6.60
2018-02-03T13:26:11.838Z,6.70
2018-02-03T13:28:39.335Z,6.70
2018-02-03T13:31:06.833Z,6.70
2018-02-03T13:33:35.145Z,7.10
2018-02-03T13:36:02.652Z,7.10
2018-02-03T13:38:30.193Z,7.40
2018-02-03T13:40:57.718Z,7.70
2018-02-03T13:43:25.231Z,7.70
2018-02-03T13:45:53.515Z,7.80
2018-02-03T13:48:21.825Z,7.80
2018-02-03T13:50:49.324Z,7.70
2018-02-03T13:53:16.865Z,7.70
2018-02-03T13:55:44.355Z,7.70
2018-02-03T13:58:11.851Z,7.60
2018-02-03T14:00:39.456Z,7.50
2018-02-03T14:03:06.947Z,7.40
2018-02-03T14:05:35.328Z,7.40
2018-02-03T14:08:02.894Z,7.40
2018-02-03T14:10:30.461Z,7.40
2018-02-03T14:12:58.003Z,7.30
2018-02-03T14:15:25.541Z,7.30
2018-02-03T14:17:53.097Z,7.20
2018-02-03T14:20:21.396Z,7.10
2018-02-03T14:22:48.893Z,7.10
2018-02-03T14:25:16.409Z,7.10
2018-02-03T14:27:43.940Z,7.00
2018-02-03T14:30:11.510Z,7.00
2018-02-03T14:32:39.779Z,6.90
2018-02-03T14:35:07.287Z,6.90
2018-02-03T14:37:34.793Z,6.90
2018-02-03T14:40:03.110Z,6.90
2018-02-03T14:42:30.620Z,6.90
2018-02-03T14:44:58.157Z,6.90
2018-02-03T14:47:25.679Z,6.90
2018-02-03T14:49:53.192Z,6.80
2018-02-03T14:52:20.719Z,6.80
2018-02-03T14:54:48.443Z,6.80
2018-02-03T14:57:15.983Z,6.80
2018-02-03T14:59:44.390Z,6.80
2018-02-03T15:02:11.899Z,6.70
2018-02-03T15:04:39.461Z,6.70
2018-02-03T15:07:07.039Z,6.70
2018-02-03T15:09:35.339Z,6.60
2018-02-03T15:12:02.845Z,6.60
2018-02-03T15:14:30.438Z,6.60
2018-02-03T15:16:58.726Z,6.50
2018-02-03T15:19:26.247Z,6.50
2018-02-03T15:21:53.779Z,6.50
2018-02-03T15:24:21.494Z,6.50
2018-02-03T15:26:49.780Z,6.50
2018-02-03T15:29:17.284Z,6.50
2018-02-03T15:31:44.815Z,6.50
2018-02-03T15:34:12.430Z,6.40
2018-02-03T15:36:40.781Z,6.40
2018-02-03T15:39:08.288Z,6.30
2018-02-03T15:41:35.780Z,6.40
2018-02-03T15:44:03.351Z,6.40
2018-02-03T15:46:30.893Z,6.30
2018-02-03T15:48:58.428Z,6.30
2018-02-03T15:51:25.968Z,6.30
2018-02-03T15:53:54.243Z,6.20
2018-02-03T15:56:21.776Z,6.20
2018-02-03T15:58:49.309Z,6.20
2018-02-03T16:01:16.839Z,6.20
2018-02-03T16:03:44.369Z,6.20
2018-02-03T16:06:12.663Z,6.10
2018-02-03T16:08:40.219Z,6.10
2018-02-03T16:11:07.762Z,6.10
2018-02-03T16:13:36.048Z,6.10
2018-02-03T16:16:03.559Z,6.10
2018-02-03T16:18:31.124Z,6.00
2018-02-03T16:20:59.426Z,6.10
2018-02-03T16:23:26.956Z,6.10
2018-02-03T16:25:54.480Z,6.10
2018-02-03T16:28:22.026Z,6.10
2018-02-03T16:30:49.526Z,6.10
2018-02-03T16:33:17.109Z,6.10
2018-02-03T16:35:44.632Z,6.00
2018-02-03T16:38:12.183Z,6.00
2018-02-03T16:40:39.667Z,6.00
2018-02-03T16:43:07.223Z,6.00
2018-02-03T16:45:34.764Z,6.00
2018-02-03T16:48:02.294Z,6.00
2018-02-03T16:50:29.817Z,6.00
2018-02-03T16:52:58.108Z,6.00
2018-02-03T16:55:26.443Z,6.00
2018-02-03T16:57:53.982Z,6.00
2018-02-03T17:00:21.495Z,6.00
2018-02-03T17:02:50.712Z,6.00
2018-02-03T17:05:18.252Z,6.00
2018-02-03T17:07:45.789Z,6.00
2018-02-03T17:10:13.321Z,5.90
2018-02-03T17:12:40.841Z,5.90
2018-02-03T17:15:08.387Z,5.90
2018-02-03T17:17:35.921Z,5.90
2018-02-03T17:20:03.438Z,5.90
2018-02-03T17:22:30.980Z,5.80
2018-02-03T17:24:58.493Z,5.80
2018-02-03T17:27:26.031Z,5.80
2018-02-03T17:29:53.558Z,5.80
2018-02-03T17:32:21.077Z,5.80
2018-02-03T17:34:49.382Z,5.80
2018-02-03T17:37:22.504Z,5.80
2018-02-03T17:39:50.052Z,5.80
2018-02-03T17:42:17.554Z,5.80
2018-02-03T17:44:45.856Z,5.80
2018-02-03T17:47:13.362Z,5.80
2018-02-03T17:49:40.884Z,5.80
2018-02-03T17:52:08.436Z,5.80
2018-02-03T17:54:35.972Z,5.80
2018-02-03T17:57:09.883Z,5.70
2018-02-03T17:59:38.162Z,5.70
2018-02-03T18:02:06.456Z,5.70
2018-02-03T18:04:33.966Z,5.70
2018-02-03T18:07:05.487Z,5.70
2018-02-03T18:09:33.019Z,5.70
2018-02-03T18:12:00.604Z,5.70
2018-02-03T18:14:28.120Z,5.60
2018-02-03T18:16:56.397Z,5.50
2018-02-03T18:19:23.929Z,5.50
2018-02-03T18:21:51.481Z,5.50
2018-02-03T18:24:19.063Z,5.40
2018-02-03T18:26:47.350Z,5.50
2018-02-03T18:29:14.861Z,5.40
2018-02-03T18:31:42.402Z,5.50
2018-02-03T18:34:09.913Z,5.50
2018-02-03T18:36:37.434Z,5.50
2018-02-03T18:39:05.696Z,5.60
2018-02-03T18:41:33.221Z,5.60
2018-02-03T18:44:00.730Z,5.60
2018-02-03T18:46:28.261Z,5.60
2018-02-03T18:48:55.769Z,5.60
2018-02-03T18:51:24.090Z,5.60
2018-02-03T18:53:51.637Z,5.60
2018-02-03T18:56:19.175Z,5.70
2018-02-03T18:58:47.610Z,5.70
2018-02-03T19:01:15.137Z,5.60
2018-02-03T19:03:42.794Z,5.60
2018-02-03T19:06:10.315Z,5.70
2018-02-03T19:08:37.896Z,5.60
2018-02-03T19:11:05.473Z,5.60
2018-02-03T19:13:32.995Z,5.60
2018-02-03T19:16:01.712Z,5.60
2018-02-03T19:18:29.232Z,5.60
2018-02-03T19:20:57.503Z,5.50
2018-02-03T19:23:25.789Z,5.50
2018-02-03T19:25:54.102Z,5.40
2018-02-03T19:28:21.669Z,5.40
2018-02-03T19:30:49.199Z,5.40
2018-02-03T19:33:16.704Z,5.40
2018-02-03T19:35:44.229Z,5.40
2018-02-03T19:38:11.748Z,5.40
2018-02-03T19:40:40.052Z,5.30
2018-02-03T19:43:07.563Z,5.30
2018-02-03T19:45:35.901Z,5.30
2018-02-03T19:48:03.457Z,5.30
2018-02-03T19:50:31.002Z,5.30
2018-02-03T19:52:58.552Z,5.30
2018-02-03T19:55:26.065Z,5.30
2018-02-03T19:57:53.610Z,5.30
2018-02-03T20:00:21.150Z,5.30
2018-02-03T20:02:48.664Z,5.30
2018-02-03T20:05:16.987Z,5.30
2018-02-03T20:07:44.538Z,5.30
2018-02-03T20:10:12.064Z,5.30
2018-02-03T20:12:40.336Z,5.30
2018-02-03T20:15:08.639Z,5.30
2018-02-03T20:17:36.178Z,5.20
2018-02-03T20:20:04.498Z,5.30
2018-02-03T20:22:32.015Z,5.30
2018-02-03T20:24:59.579Z,5.30
2018-02-03T20:27:27.106Z,5.30
2018-02-03T20:29:54.659Z,5.30
2018-02-03T20:32:22.230Z,5.30
2018-02-03T20:34:49.710Z,5.30
2018-02-03T20:37:17.256Z,5.20
2018-02-03T20:39:45.531Z,5.20
2018-02-03T20:42:13.858Z,5.20
2018-02-03T20:44:41.363Z,5.20
2018-02-03T20:47:09.682Z,5.20
2018-02-03T20:49:37.196Z,5.20
2018-02-03T20:52:05.812Z,5.20
2018-02-03T20:54:33.335Z,5.10
2018-02-03T20:57:01.880Z,5.20
2018-02-03T20:59:29.427Z,5.20
2018-02-03T21:01:57.163Z,5.20
2018-02-03T21:04:24.676Z,5.20
2018-02-03T21:06:52.204Z,5.20
2018-02-03T21:09:19.912Z,5.20
2018-02-03T21:11:48.235Z,5.30
2018-02-03T21:14:15.815Z,5.30
2018-02-03T21:16:43.353Z,5.30
2018-02-03T21:19:10.982Z,5.30
2018-02-03T21:21:38.503Z,5.30
2018-02-03T21:24:06.026Z,5.40
2018-02-03T21:26:33.600Z,5.40
2018-02-03T21:29:01.202Z,5.40
2018-02-03T21:31:29.525Z,5.40
2018-02-03T21:33:57.059Z,5.40
2018-02-03T21:36:24.611Z,5.40
2018-02-03T21:38:52.138Z,5.40
2018-02-03T21:41:19.663Z,5.50
2018-02-03T21:43:47.191Z,5.50
2018-02-03T21:46:14.712Z,5.40
2018-02-03T21:48:42.278Z,5.50
2018-02-03T21:51:09.807Z,5.50
2018-02-03T21:53:37.349Z,5.50
2018-02-03T21:56:04.879Z,5.50
2018-02-03T21:58:32.385Z,5.50
2018-02-03T22:00:59.917Z,5.50
2018-02-03T22:03:27.428Z,5.50
2018-02-03T22:05:55.748Z,5.50
2018-02-03T22:08:23.242Z,5.50
2018-02-03T22:10:50.746Z,5.50
2018-02-03T22:13:18.288Z,5.50
2018-02-03T22:15:45.813Z,5.50
2018-02-03T22:18:13.406Z,5.50
2018-02-03T22:20:41.714Z,5.50
2018-02-03T22:23:09.260Z,5.50
2018-02-03T22:25:36.792Z,5.50
2018-02-03T22:28:04.343Z,5.50
2018-02-03T22:30:32.647Z,5.50
2018-02-03T22:33:00.188Z,5.50
2018-02-03T22:35:28.448Z,5.50
2018-02-03T22:37:56.725Z,5.50
2018-02-03T22:40:25.007Z,5.50
2018-02-03T22:42:53.340Z,5.50
2018-02-03T22:45:20.900Z,5.50
2018-02-03T22:47:48.435Z,5.50
2018-02-03T22:50:15.981Z,5.50
2018-02-03T22:52:43.512Z,5.50
2018-02-03T22:55:11.859Z,5.50
2018-02-03T22:57:39.356Z,5.50
2018-02-03T23:00:07.659Z,5.50
2018-02-03T23:02:40.924Z,5.50
2018-02-03T23:05:09.232Z,5.50
2018-02-03T23:07:36.980Z,5.50
2018-02-03T23:10:04.511Z,5.50
2018-02-03T23:12:32.793Z,5.50
2018-02-03T23:15:01.251Z,5.50
2018-02-03T23:17:29.559Z,5.40
2018-02-03T23:19:57.180Z,5.40
2018-02-03T23:22:24.767Z,5.40
2018-02-03T23:24:52.302Z,5.40
2018-02-03T23:27:19.806Z,5.40
2018-02-03T23:29:47.325Z,5.40
2018-02-03T23:32:14.828Z,5.40
2018-02-03T23:34:42.373Z,5.40
2018-02-03T23:37:09.874Z,5.40
2018-02-03T23:39:38.188Z,5.40
2018-02-03T23:42:06.472Z,5.30
2018-02-03T23:44:33.997Z,5.30
2018-02-03T23:47:01.516Z,5.30
2018-02-03T23:49:29.020Z,5.30
2018-02-03T23:51:56.536Z,5.30
2018-02-03T23:54:24.057Z,5.30
2018-02-03T23:56:52.395Z,5.20
2018-02-03T23:59:19.887Z,5.20
